createdAt,value
2023-01-25T00:01:33.758Z,31.85
2023-01-25T00:06:35.563Z,33.37
2023-01-25T00:11:37.803Z,31.98
2023-01-25T00:16:40.289Z,31.52
2023-01-25T00:21:42.209Z,32.97
2023-01-25T00:26:44.189Z,29.67
2023-01-25T00:32:02.049Z,30.58
2023-01-25T00:37:14.395Z,27.48
2023-01-25T00:42:17.787Z,30.83
2023-01-25T00:47:19.833Z,30.17
2023-01-25T00:52:23.100Z,25.70
2023-01-25T00:57:24.955Z,26.63
2023-01-25T01:02:26.734Z,29.20
2023-01-25T01:07:29.107Z,26.63
2023-01-25T01:12:30.780Z,27.88
2023-01-25T01:17:32.409Z,27.10
2023-01-25T01:22:34.052Z,26.02
2023-01-25T01:27:35.790Z,27.50
2023-01-25T01:32:37.694Z,26.87
2023-01-25T01:37:42.916Z,26.73
2023-01-25T01:43:02.116Z,25.63
2023-01-25T01:48:05.576Z,26.00
2023-01-25T01:53:07.872Z,24.88
2023-01-25T01:58:10.450Z,25.10
2023-01-25T02:03:14.195Z,24.80
2023-01-25T02:08:15.927Z,26.38
2023-01-25T02:13:19.113Z,25.55
2023-01-25T02:18:20.749Z,23.05
2023-01-25T02:24:04.363Z,25.67
2023-01-25T02:29:07.987Z,26.17
2023-01-25T02:34:09.602Z,25.67
2023-01-25T02:39:20.069Z,25.20
2023-01-25T02:44:26.696Z,24.08
2023-01-25T02:49:28.396Z,24.40
2023-01-25T02:54:30.177Z,24.35
2023-01-25T02:59:31.990Z,25.73
2023-01-25T03:04:34.908Z,24.95
2023-01-25T03:09:37.353Z,22.95
2023-01-25T03:14:39.072Z,21.15
2023-01-25T03:19:41.062Z,22.33
2023-01-25T03:24:42.870Z,15.73
2023-01-25T03:29:46.107Z,15.50
2023-01-25T03:34:52.520Z,14.02
2023-01-25T03:39:55.084Z,14.60
2023-01-25T03:44:58.659Z,13.00
2023-01-25T03:50:00.783Z,13.52
2023-01-25T03:55:02.574Z,13.07
2023-01-25T04:00:05.083Z,14.55
2023-01-25T04:05:16.925Z,12.77
2023-01-25T04:10:19.074Z,13.95
2023-01-25T04:15:22.786Z,13.38
2023-01-25T04:20:24.739Z,13.23
2023-01-25T04:25:27.527Z,15.10
2023-01-25T04:30:29.259Z,14.00
2023-01-25T04:35:32.907Z,14.18
2023-01-25T04:40:37.129Z,14.20
2023-01-25T04:45:38.871Z,13.65
2023-01-25T04:50:46.848Z,13.43
2023-01-25T04:55:49.678Z,15.10
2023-01-25T05:00:51.797Z,12.27
2023-01-25T05:05:53.975Z,12.17
2023-01-25T05:10:58.949Z,13.55
2023-01-25T05:16:19.958Z,13.68
2023-01-25T05:21:42.975Z,15.07
2023-01-25T05:27:01.657Z,14.88
2023-01-25T05:32:23.200Z,14.82
2023-01-25T05:37:24.938Z,12.65
2023-01-25T05:42:33.451Z,11.82
2023-01-25T05:47:36.211Z,13.27
2023-01-25T05:52:37.989Z,13.60
2023-01-25T05:57:39.753Z,14.67
2023-01-25T06:02:41.665Z,15.57
2023-01-25T06:07:48.025Z,15.35
2023-01-25T06:12:56.968Z,13.30
2023-01-25T06:17:58.688Z,14.63
2023-01-25T06:23:13.824Z,13.45
2023-01-25T06:28:15.508Z,13.52
2023-01-25T06:33:17.131Z,14.53
2023-01-25T06:38:18.817Z,14.00
2023-01-25T06:43:20.411Z,13.98
2023-01-25T06:48:21.997Z,14.02
2023-01-25T06:53:25.320Z,14.03
2023-01-25T06:58:27.943Z,13.27
2023-01-25T07:03:30.699Z,14.80
2023-01-25T07:08:33.882Z,16.90
2023-01-25T07:13:35.591Z,14.32
2023-01-25T07:18:37.639Z,17.75
2023-01-25T07:23:39.702Z,13.77
2023-01-25T07:28:41.318Z,16.60
2023-01-25T07:33:43.202Z,16.48
2023-01-25T07:38:44.817Z,16.20
2023-01-25T07:43:46.433Z,15.17
2023-01-25T07:48:54.721Z,15.87
2023-01-25T07:54:02.246Z,13.70
2023-01-25T07:59:04.304Z,19.33
2023-01-25T08:04:07.084Z,15.05
2023-01-25T08:09:12.811Z,10.63
2023-01-25T08:14:14.484Z,11.50
2023-01-25T08:19:16.129Z,12.10
2023-01-25T08:24:20.102Z,11.73
2023-01-25T08:29:22.382Z,11.02
2023-01-25T08:34:24.137Z,13.93
2023-01-25T08:39:25.944Z,11.25
2023-01-25T08:44:27.541Z,11.02
2023-01-25T08:49:31.126Z,11.33
2023-01-25T08:54:32.779Z,10.98
2023-01-25T08:59:34.436Z,9.30
2023-01-25T09:04:36.077Z,9.85
2023-01-25T09:09:37.716Z,8.50
2023-01-25T09:14:40.371Z,8.63
2023-01-25T09:19:42.575Z,8.15
2023-01-25T09:24:45.051Z,9.10
2023-01-25T09:30:00.921Z,7.75
2023-01-25T09:35:04.733Z,7.25
2023-01-25T09:40:19.611Z,8.03
2023-01-25T09:45:32.232Z,7.40
2023-01-25T09:50:48.179Z,7.20
2023-01-25T09:55:56.139Z,7.18
2023-01-25T10:01:38.130Z,6.90
2023-01-25T10:06:48.779Z,6.85
2023-01-25T10:12:03.970Z,8.70
2023-01-25T10:17:19.201Z,7.38
2023-01-25T10:22:25.375Z,7.23
2023-01-25T10:27:59.214Z,7.00
2023-01-25T10:33:07.597Z,6.75
2023-01-25T10:38:21.590Z,7.47
2023-01-25T10:43:23.783Z,7.40
2023-01-25T10:48:36.592Z,8.80
2023-01-25T10:53:44.274Z,7.70
2023-01-25T10:58:49.314Z,8.77
2023-01-25T11:03:51.369Z,8.35
2023-01-25T11:08:53.016Z,7.70
2023-01-25T11:13:55.398Z,8.43
2023-01-25T11:18:59.017Z,8.67
2023-01-25T11:24:06.729Z,7.47
2023-01-25T11:29:12.316Z,9.13
2023-01-25T11:34:17.027Z,10.07
2023-01-25T11:39:53.663Z,8.05
2023-01-25T11:45:13.668Z,7.53
2023-01-25T11:50:19.610Z,9.23
2023-01-25T11:55:29.299Z,9.02
2023-01-25T12:00:54.911Z,8.18
2023-01-25T12:06:12.892Z,9.38
2023-01-25T12:11:44.103Z,11.90
2023-01-25T12:17:06.267Z,9.20
2023-01-25T12:22:24.114Z,10.43
2023-01-25T12:27:54.695Z,9.05
2023-01-25T12:33:13.399Z,9.07
2023-01-25T12:38:24.367Z,9.75
2023-01-25T12:43:38.811Z,9.40
2023-01-25T12:48:47.590Z,9.57
2023-01-25T12:53:52.538Z,9.32
2023-01-25T12:59:00.099Z,8.67
2023-01-25T13:04:40.123Z,9.70
2023-01-25T13:09:50.045Z,10.07
2023-01-25T13:14:51.997Z,10.17
2023-01-25T13:19:54.468Z,9.45
2023-01-25T13:25:02.137Z,9.95
2023-01-25T13:30:22.206Z,9.05
2023-01-25T13:35:35.075Z,10.25
2023-01-25T13:40:39.888Z,11.02
2023-01-25T13:45:42.348Z,9.75
2023-01-25T13:50:51.179Z,9.13
2023-01-25T13:55:55.652Z,10.80
2023-01-25T14:01:08.306Z,11.82
2023-01-25T14:06:32.171Z,10.10
2023-01-25T14:11:35.907Z,9.95
2023-01-25T14:16:37.574Z,12.15
2023-01-25T14:21:39.739Z,11.10
2023-01-25T14:26:42.087Z,11.05
2023-01-25T14:31:43.808Z,12.13
2023-01-25T14:36:46.839Z,14.20
2023-01-25T14:42:01.149Z,12.60
2023-01-25T14:47:22.938Z,12.50
2023-01-25T14:52:27.764Z,12.53
2023-01-25T14:57:32.493Z,16.83
2023-01-25T15:03:00.580Z,17.43
2023-01-25T15:08:08.250Z,21.37
2023-01-25T15:13:14.468Z,14.70
2023-01-25T15:18:41.039Z,16.00
2023-01-25T15:23:44.448Z,16.48
2023-01-25T15:28:46.423Z,16.65
2023-01-25T15:33:48.095Z,16.60
2023-01-25T15:38:49.762Z,16.17
2023-01-25T15:43:52.128Z,15.98
2023-01-25T15:48:54.277Z,20.13
2023-01-25T15:53:55.868Z,15.15
2023-01-25T15:59:00.413Z,15.48
2023-01-25T16:04:02.089Z,17.67
2023-01-25T16:09:14.216Z,16.70
2023-01-25T16:14:15.865Z,15.95
2023-01-25T16:19:20.133Z,16.83
2023-01-25T16:24:21.854Z,15.93
2023-01-25T16:29:24.109Z,17.75
2023-01-25T16:34:25.717Z,16.00
2023-01-25T16:39:28.357Z,16.58
2023-01-25T16:44:30.067Z,16.80
2023-01-25T16:49:33.499Z,18.47
2023-01-25T16:54:35.099Z,17.75
2023-01-25T16:59:36.708Z,19.10
2023-01-25T17:04:38.329Z,20.27
2023-01-25T17:09:40.097Z,21.30
2023-01-25T17:14:41.722Z,23.87
2023-01-25T17:19:43.305Z,19.02
2023-01-25T17:24:44.904Z,20.40
2023-01-25T17:29:46.607Z,20.67
2023-01-25T17:34:48.349Z,23.42
2023-01-25T17:39:49.958Z,24.40
2023-01-25T17:44:51.546Z,24.40
2023-01-25T17:49:53.218Z,20.67
2023-01-25T17:54:54.813Z,23.48
2023-01-25T17:59:56.441Z,23.33
2023-01-25T18:04:58.080Z,25.50
2023-01-25T18:09:59.785Z,25.13
2023-01-25T18:15:01.438Z,25.38
2023-01-25T18:20:05.479Z,23.10
2023-01-25T18:25:27.094Z,23.00
2023-01-25T18:30:51.771Z,26.20
2023-01-25T18:35:54.096Z,27.10
2023-01-25T18:40:56.207Z,27.37
2023-01-25T18:45:59.529Z,31.00
2023-01-25T18:51:12.951Z,28.65
2023-01-25T18:56:17.164Z,26.73
2023-01-25T19:01:20.829Z,26.40
2023-01-25T19:06:24.262Z,27.13
2023-01-25T19:11:26.667Z,26.27
2023-01-25T19:16:28.444Z,26.23
2023-01-25T19:21:30.278Z,28.17
2023-01-25T19:26:31.893Z,26.88
2023-01-25T19:31:34.438Z,28.60
2023-01-25T19:36:37.956Z,28.27
2023-01-25T19:41:39.567Z,28.08
2023-01-25T19:46:41.403Z,26.80
2023-01-25T19:51:47.897Z,28.02
2023-01-25T19:56:50.303Z,27.52
2023-01-25T20:01:52.312Z,27.85
2023-01-25T20:06:54.052Z,27.23
2023-01-25T20:11:56.989Z,26.13
2023-01-25T20:16:58.622Z,26.63
2023-01-25T20:22:00.557Z,25.17
2023-01-25T20:27:04.250Z,26.70
2023-01-25T20:32:06.268Z,30.30
2023-01-25T20:37:07.948Z,28.52
2023-01-25T20:42:09.572Z,28.75
2023-01-25T20:47:11.151Z,29.05
2023-01-25T20:52:13.853Z,29.63
2023-01-25T20:57:15.496Z,28.63
2023-01-25T21:02:17.120Z,29.05
2023-01-25T21:07:18.746Z,31.65
2023-01-25T21:12:20.360Z,28.35
2023-01-25T21:17:21.960Z,31.90
2023-01-25T21:22:24.071Z,35.85
2023-01-25T21:27:29.564Z,31.58
2023-01-25T21:32:31.198Z,32.13
2023-01-25T21:37:32.871Z,30.95
2023-01-25T21:42:34.484Z,34.50
2023-01-25T21:47:36.585Z,32.00
2023-01-25T21:52:38.222Z,32.88
2023-01-25T21:57:47.102Z,34.25
2023-01-25T22:02:51.701Z,35.97
2023-01-25T22:07:53.343Z,30.40
2023-01-25T22:12:54.994Z,30.30
2023-01-25T22:17:56.651Z,28.02
2023-01-25T22:22:58.246Z,29.40
2023-01-25T22:28:00.224Z,30.30
2023-01-25T22:33:01.825Z,31.02
2023-01-25T22:38:03.423Z,31.23
2023-01-25T22:43:05.024Z,35.88
2023-01-25T22:48:06.865Z,34.60
2023-01-25T22:53:08.472Z,35.15
2023-01-25T22:58:10.418Z,35.08
2023-01-25T23:03:12.053Z,33.72
2023-01-25T23:08:13.710Z,32.10
2023-01-25T23:13:15.403Z,29.38
2023-01-25T23:18:35.683Z,29.45
2023-01-25T23:23:37.343Z,31.55
2023-01-25T23:28:39.136Z,30.63
2023-01-25T23:33:40.774Z,33.05
2023-01-25T23:38:43.515Z,31.02
2023-01-25T23:43:45.814Z,30.10
2023-01-25T23:48:47.782Z,31.92
2023-01-25T23:53:49.424Z,33.40
2023-01-25T23:58:51.025Z,34.10
